createdAt,value
2022-10-04T00:03:51.272Z,95.75
2022-10-04T00:08:52.556Z,96.79
2022-10-04T00:13:52.734Z,97.65
2022-10-04T00:18:45.697Z,98.17
2022-10-04T00:23:37.250Z,98.90
2022-10-04T00:28:37.999Z,99.04
2022-10-04T00:33:45.020Z,98.76
2022-10-04T00:38:36.821Z,98.63
2022-10-04T00:43:58.566Z,98.94
2022-10-04T00:48:54.346Z,99.83
2022-10-04T00:54:09.465Z,100.00
2022-10-04T00:59:37.017Z,100.00
2022-10-04T01:04:54.958Z,100.00
2022-10-04T01:09:55.042Z,100.00
2022-10-04T01:15:05.331Z,100.00
2022-10-04T01:19:57.225Z,100.00
2022-10-04T01:24:49.565Z,100.00
2022-10-04T01:29:41.241Z,100.00
2022-10-04T01:34:32.977Z,100.00
2022-10-04T01:39:26.265Z,100.00
2022-10-04T01:44:27.581Z,100.00
2022-10-04T01:49:24.363Z,100.00
2022-10-04T01:54:19.962Z,100.00
2022-10-04T01:59:23.943Z,100.00
2022-10-04T02:04:23.670Z,100.00
2022-10-04T02:09:25.616Z,100.00
2022-10-04T02:14:22.393Z,100.00
2022-10-04T02:19:15.410Z,100.00
2022-10-04T02:24:08.676Z,100.00
2022-10-04T02:29:00.679Z,100.00
2022-10-04T02:33:56.296Z,100.00
2022-10-04T02:38:55.063Z,100.00
2022-10-04T02:43:56.737Z,100.00
2022-10-04T02:49:14.380Z,100.00
2022-10-04T02:54:34.126Z,100.00
2022-10-04T02:59:35.535Z,100.00
2022-10-04T03:04:31.218Z,100.00
2022-10-04T03:09:29.497Z,100.00
2022-10-04T03:14:28.591Z,100.00
2022-10-04T03:19:23.308Z,100.00
2022-10-04T03:24:25.171Z,100.00
2022-10-04T03:29:19.246Z,99.48
2022-10-04T03:34:25.522Z,99.34
2022-10-04T03:39:29.007Z,99.22
2022-10-04T03:44:21.709Z,99.22
2022-10-04T03:49:26.357Z,99.24
2022-10-04T03:54:23.733Z,99.21
2022-10-04T03:59:18.446Z,99.55
2022-10-04T04:04:31.301Z,98.87
2022-10-04T04:09:35.953Z,98.66
2022-10-04T04:14:28.466Z,98.03
2022-10-04T04:19:23.760Z,98.06
2022-10-04T04:24:24.971Z,98.04
2022-10-04T04:29:27.506Z,98.26
2022-10-04T04:34:25.572Z,98.34
2022-10-04T04:39:40.857Z,98.34
2022-10-04T04:44:33.298Z,98.40
2022-10-04T04:49:24.879Z,98.65
2022-10-04T04:54:22.385Z,98.55
2022-10-04T04:59:15.606Z,98.64
2022-10-04T05:04:10.049Z,98.69
2022-10-04T05:09:02.459Z,99.07
2022-10-04T05:13:59.206Z,99.05
2022-10-04T05:19:00.539Z,98.98
2022-10-04T05:23:53.347Z,98.57
2022-10-04T05:28:45.145Z,98.50
2022-10-04T05:33:45.301Z,98.77
2022-10-04T05:39:15.355Z,98.80
2022-10-04T05:44:27.226Z,98.80
2022-10-04T05:49:20.666Z,99.04
2022-10-04T05:54:12.516Z,98.94
2022-10-04T05:59:25.705Z,99.00
2022-10-04T06:04:37.926Z,99.00
2022-10-04T06:09:44.862Z,99.58
2022-10-04T06:15:08.998Z,99.79
2022-10-04T06:20:19.404Z,99.45
2022-10-04T06:25:26.315Z,99.85
2022-10-04T06:30:20.594Z,100.00
2022-10-04T06:35:31.071Z,100.00
2022-10-04T06:40:38.001Z,100.00
2022-10-04T06:46:11.608Z,100.00
2022-10-04T06:51:06.123Z,100.00
2022-10-04T06:56:10.068Z,100.00
2022-10-04T07:01:10.966Z,100.00
2022-10-04T07:06:05.395Z,99.95
2022-10-04T07:11:17.630Z,99.79
2022-10-04T07:16:37.742Z,98.60
2022-10-04T07:21:40.468Z,98.37
2022-10-04T07:26:49.142Z,98.49
2022-10-04T07:31:42.705Z,98.13
2022-10-04T07:36:49.367Z,98.25
2022-10-04T07:41:46.620Z,98.22
2022-10-04T07:46:58.149Z,97.55
2022-10-04T07:51:49.738Z,97.92
2022-10-04T07:57:04.357Z,98.28
2022-10-04T08:02:28.886Z,98.93
2022-10-04T08:07:57.944Z,99.57
2022-10-04T08:12:54.868Z,100.00
2022-10-04T08:18:21.558Z,99.66
2022-10-04T08:23:44.120Z,97.90
2022-10-04T08:29:12.979Z,94.18
2022-10-04T08:34:04.593Z,93.90
2022-10-04T08:39:06.724Z,93.16
2022-10-04T08:44:16.789Z,92.40
2022-10-04T08:49:21.386Z,92.76
2022-10-04T08:54:41.014Z,91.75
2022-10-04T08:59:54.804Z,91.36
2022-10-04T09:05:26.361Z,91.32
2022-10-04T09:10:26.688Z,91.33
2022-10-04T09:15:46.364Z,91.51
2022-10-04T09:21:01.382Z,92.09
2022-10-04T09:26:18.664Z,92.51
2022-10-04T09:31:48.230Z,92.77
2022-10-04T09:36:49.377Z,93.43
2022-10-04T09:42:08.873Z,94.24
2022-10-04T09:47:38.338Z,94.09
2022-10-04T09:53:04.275Z,93.87
2022-10-04T09:58:29.414Z,92.72
2022-10-04T10:03:34.461Z,92.21
2022-10-04T10:08:43.017Z,91.85
2022-10-04T10:13:57.427Z,91.70
2022-10-04T10:18:58.593Z,91.72
2022-10-04T10:24:25.587Z,91.30
2022-10-04T10:29:39.977Z,90.53
2022-10-04T10:34:53.497Z,89.57
2022-10-04T10:40:16.842Z,88.15
2022-10-04T10:45:41.033Z,86.74
2022-10-04T10:51:00.183Z,87.24
2022-10-04T10:56:34.077Z,86.80
2022-10-04T11:02:05.890Z,87.00
2022-10-04T11:07:06.462Z,87.47
2022-10-04T11:12:49.561Z,86.60
2022-10-04T11:17:54.723Z,86.35
2022-10-04T11:23:05.458Z,85.69
2022-10-04T11:28:39.077Z,84.91
2022-10-04T11:34:00.980Z,84.90
2022-10-04T11:39:02.658Z,83.89
2022-10-04T11:44:10.018Z,84.38
2022-10-04T11:49:20.391Z,83.71
2022-10-04T11:54:39.845Z,82.83
2022-10-04T12:00:10.721Z,81.38
2022-10-04T12:05:18.890Z,81.13
2022-10-04T12:10:29.864Z,80.51
2022-10-04T12:15:59.740Z,80.67
2022-10-04T12:21:01.889Z,80.87
2022-10-04T12:25:53.797Z,81.51
2022-10-04T12:31:13.810Z,82.21
2022-10-04T12:36:24.729Z,82.25
2022-10-04T12:41:31.931Z,83.12
2022-10-04T12:47:11.891Z,83.46
2022-10-04T12:52:27.867Z,83.73
2022-10-04T12:57:32.984Z,84.96
2022-10-04T13:02:33.198Z,85.37
2022-10-04T13:07:37.156Z,84.61
2022-10-04T13:13:04.532Z,84.26
2022-10-04T13:18:05.510Z,84.25
2022-10-04T13:23:09.407Z,84.52
2022-10-04T13:28:13.629Z,85.55
2022-10-04T13:33:05.311Z,87.13
2022-10-04T13:38:06.676Z,86.84
2022-10-04T13:43:13.951Z,87.07
2022-10-04T13:48:38.632Z,87.05
2022-10-04T13:54:07.760Z,86.47
2022-10-04T13:59:02.196Z,86.57
2022-10-04T14:04:11.981Z,86.80
2022-10-04T14:09:42.795Z,86.82
2022-10-04T14:15:19.821Z,87.35
2022-10-04T14:20:29.857Z,88.11
2022-10-04T14:25:42.508Z,89.15
2022-10-04T14:30:55.900Z,90.31
2022-10-04T14:36:13.294Z,92.24
2022-10-04T14:41:27.890Z,93.37
2022-10-04T14:46:30.590Z,94.17
2022-10-04T14:51:39.914Z,94.69
2022-10-04T14:56:58.083Z,94.32
2022-10-04T15:02:30.334Z,94.17
2022-10-04T15:07:41.625Z,95.23
2022-10-04T15:13:20.985Z,95.70
2022-10-04T15:18:54.497Z,96.58
2022-10-04T15:23:53.422Z,97.17
2022-10-04T15:28:53.968Z,97.77
2022-10-04T15:34:04.432Z,98.24
2022-10-04T15:39:05.086Z,98.65
2022-10-04T15:44:12.015Z,99.02
2022-10-04T15:49:15.626Z,98.98
2022-10-04T15:54:36.262Z,98.58
2022-10-04T15:59:36.371Z,98.93
2022-10-04T16:05:00.333Z,99.38
2022-10-04T16:09:56.849Z,99.47
2022-10-04T16:15:12.904Z,100.00
2022-10-04T16:20:23.271Z,100.00
2022-10-04T16:25:23.793Z,99.78
2022-10-04T16:30:27.897Z,99.85
2022-10-04T16:35:41.761Z,99.10
2022-10-04T16:40:56.983Z,98.83
2022-10-04T16:46:18.466Z,98.47
2022-10-04T16:51:18.951Z,98.92
2022-10-04T16:56:33.554Z,98.62
2022-10-04T17:01:52.993Z,98.12
2022-10-04T17:06:59.176Z,98.40
2022-10-04T17:12:17.047Z,98.28
2022-10-04T17:17:16.694Z,98.65
2022-10-04T17:22:16.074Z,99.29
2022-10-04T17:27:53.959Z,100.00
2022-10-04T17:33:33.328Z,100.00
2022-10-04T17:38:46.391Z,100.00
2022-10-04T17:44:17.431Z,100.00
2022-10-04T17:49:56.790Z,100.00
2022-10-04T17:55:16.520Z,100.00
2022-10-04T18:00:11.475Z,100.00
2022-10-04T18:05:27.226Z,100.00
2022-10-04T18:10:27.530Z,100.00
2022-10-04T18:15:19.247Z,100.00
2022-10-04T18:20:10.879Z,100.00
2022-10-04T18:25:14.477Z,100.00
2022-10-04T18:30:21.061Z,100.00
2022-10-04T18:35:27.348Z,100.00
2022-10-04T18:40:24.845Z,100.00
2022-10-04T18:45:26.640Z,100.00
2022-10-04T18:50:24.646Z,100.00
2022-10-04T18:55:35.256Z,100.00
2022-10-04T19:01:01.402Z,100.00
2022-10-04T19:06:05.696Z,100.00
2022-10-04T19:11:10.208Z,100.00
2022-10-04T19:16:21.010Z,100.00
2022-10-04T19:21:43.832Z,100.00
2022-10-04T19:26:44.026Z,100.00
2022-10-04T19:32:00.880Z,100.00
2022-10-04T19:37:00.074Z,100.00
2022-10-04T19:42:02.977Z,100.00
2022-10-04T19:47:23.278Z,100.00
2022-10-04T19:52:22.325Z,100.00
2022-10-04T19:57:15.218Z,100.00
2022-10-04T20:02:13.722Z,100.00
2022-10-04T20:07:18.056Z,100.00
2022-10-04T20:12:39.114Z,100.00
2022-10-04T20:17:32.999Z,100.00
2022-10-04T20:22:30.077Z,100.00
2022-10-04T20:27:24.729Z,100.00
2022-10-04T20:32:34.426Z,100.00
2022-10-04T20:37:44.491Z,100.00
2022-10-04T20:42:38.721Z,100.00
2022-10-04T20:47:38.238Z,100.00
2022-10-04T20:52:32.034Z,100.00
2022-10-04T20:57:24.084Z,100.00
2022-10-04T21:02:17.716Z,100.00
2022-10-04T21:07:14.973Z,100.00
2022-10-04T21:12:26.721Z,100.00
2022-10-04T21:17:30.684Z,100.00
2022-10-04T21:22:31.013Z,100.00
2022-10-04T21:27:30.259Z,100.00
2022-10-04T21:32:22.535Z,100.00
2022-10-04T21:37:14.689Z,100.00
2022-10-04T21:42:06.349Z,100.00
2022-10-04T21:46:57.904Z,100.00
2022-10-04T21:51:49.576Z,100.00
2022-10-04T21:56:41.217Z,100.00
2022-10-04T22:01:33.403Z,100.00
2022-10-04T22:06:25.218Z,100.00
2022-10-04T22:11:17.011Z,100.00
2022-10-04T22:16:09.250Z,100.00
2022-10-04T22:21:00.998Z,100.00
2022-10-04T22:25:54.036Z,100.00
2022-10-04T22:30:45.776Z,100.00
2022-10-04T22:35:37.501Z,100.00
2022-10-04T22:40:29.137Z,100.00
2022-10-04T22:45:30.027Z,100.00
2022-10-04T22:50:35.216Z,100.00
2022-10-04T22:55:26.908Z,100.00
2022-10-04T23:00:18.692Z,100.00
2022-10-04T23:05:16.879Z,100.00
2022-10-04T23:10:09.366Z,100.00
2022-10-04T23:15:02.748Z,100.00
2022-10-04T23:20:20.659Z,100.00
2022-10-04T23:25:19.700Z,100.00
2022-10-04T23:30:20.898Z,100.00
2022-10-04T23:35:22.333Z,100.00
2022-10-04T23:40:17.974Z,100.00
2022-10-04T23:45:17.360Z,100.00
2022-10-04T23:50:35.346Z,100.00
2022-10-04T23:55:34.374Z,100.00
